AAL8500 KBOI-KPDX
Flight info
| Callsign | AAL8500 |
|---|---|
| Flight time | 0h 51m |
| Altitude | 28000 |
| Route | SAILL BUEEL JOTBA HHOOD6 |
| Aircraft | B738/M-SDE2E3FGHIRWXY/LB1 |
Departure
| Time | 2026-05-08 02:15 |
|---|---|
| Airport | Boise Air Terminal/Gowen Field (KBOI) |
Arrival
| Time | 2026-05-08 03:07 |
|---|---|
| Airport | Portland International Airport (KPDX) |
| Time | Latitude | Longitude | Altitude | Speed | Heading |
|---|---|---|---|---|---|
| 2026-05-08 01:31 | 43.56755 | -116.22190 | 2880 ft | 0 kts | 332° |
| 2026-05-08 02:02 | 43.56743 | -116.22181 | 2880 ft | 4 kts | 332° |
| 2026-05-08 02:02 | 43.56720 | -116.22173 | 2880 ft | 4 kts | 18° |
| 2026-05-08 02:03 | 43.56698 | -116.22184 | 2880 ft | 2 kts | 18° |
| 2026-05-08 02:03 | 43.56674 | -116.22197 | 2880 ft | 4 kts | 32° |
| 2026-05-08 02:03 | 43.56655 | -116.22221 | 2880 ft | 4 kts | 63° |
| 2026-05-08 02:03 | 43.56651 | -116.22251 | 2880 ft | 2 kts | 114° |
| 2026-05-08 02:04 | 43.56653 | -116.22259 | 2880 ft | 0 kts | 115° |
| 2026-05-08 02:06 | 43.56652 | -116.22254 | 2880 ft | 4 kts | 115° |
| 2026-05-08 02:06 | 43.56630 | -116.22193 | 2880 ft | 12 kts | 116° |
| 2026-05-08 02:06 | 43.56587 | -116.22065 | 2880 ft | 15 kts | 114° |
| 2026-05-08 02:06 | 43.56544 | -116.21939 | 2880 ft | 14 kts | 115° |
| 2026-05-08 02:07 | 43.56500 | -116.21813 | 2880 ft | 15 kts | 115° |
| 2026-05-08 02:07 | 43.56457 | -116.21683 | 2880 ft | 15 kts | 114° |
| 2026-05-08 02:07 | 43.56415 | -116.21558 | 2880 ft | 14 kts | 117° |
| 2026-05-08 02:07 | 43.56373 | -116.21442 | 2881 ft | 13 kts | 115° |
| 2026-05-08 02:08 | 43.56335 | -116.21328 | 2881 ft | 13 kts | 114° |
| 2026-05-08 02:08 | 43.56297 | -116.21218 | 2881 ft | 13 kts | 116° |
| 2026-05-08 02:08 | 43.56260 | -116.21111 | 2881 ft | 12 kts | 116° |
| 2026-05-08 02:08 | 43.56222 | -116.21007 | 2881 ft | 12 kts | 117° |
| 2026-05-08 02:09 | 43.56191 | -116.20904 | 2881 ft | 12 kts | 110° |
| 2026-05-08 02:09 | 43.56157 | -116.20805 | 2880 ft | 11 kts | 118° |
| 2026-05-08 02:09 | 43.56123 | -116.20710 | 2880 ft | 11 kts | 115° |
| 2026-05-08 02:09 | 43.56092 | -116.20615 | 2880 ft | 11 kts | 115° |
| 2026-05-08 02:10 | 43.56061 | -116.20524 | 2880 ft | 10 kts | 115° |
| 2026-05-08 02:10 | 43.56034 | -116.20447 | 2880 ft | 7 kts | 117° |
| 2026-05-08 02:10 | 43.56008 | -116.20374 | 2880 ft | 11 kts | 114° |
| 2026-05-08 02:10 | 43.55976 | -116.20274 | 2880 ft | 9 kts | 114° |
| 2026-05-08 02:11 | 43.55986 | -116.20209 | 2880 ft | 8 kts | 33° |
| 2026-05-08 02:11 | 43.56026 | -116.20226 | 2880 ft | 8 kts | 266° |
| 2026-05-08 02:11 | 43.55983 | -116.20266 | 2880 ft | 8 kts | 208° |
| 2026-05-08 02:11 | 43.55981 | -116.20320 | 2880 ft | 8 kts | 321° |
| 2026-05-08 02:12 | 43.56011 | -116.20377 | 2880 ft | 7 kts | 294° |
| 2026-05-08 02:12 | 43.56032 | -116.20440 | 2880 ft | 7 kts | 295° |
| 2026-05-08 02:12 | 43.56059 | -116.20517 | 2880 ft | 10 kts | 296° |
| 2026-05-08 02:12 | 43.56088 | -116.20604 | 2880 ft | 10 kts | 295° |
| 2026-05-08 02:13 | 43.56118 | -116.20690 | 2880 ft | 10 kts | 295° |
| 2026-05-08 02:13 | 43.56147 | -116.20773 | 2880 ft | 9 kts | 296° |
| 2026-05-08 02:13 | 43.56154 | -116.20849 | 2881 ft | 8 kts | 237° |
| 2026-05-08 02:13 | 43.56109 | -116.20888 | 2881 ft | 8 kts | 204° |
| 2026-05-08 02:14 | 43.56059 | -116.20920 | 2880 ft | 10 kts | 206° |
| 2026-05-08 02:14 | 43.55982 | -116.20969 | 2880 ft | 9 kts | 204° |
| 2026-05-08 02:14 | 43.55925 | -116.21003 | 2880 ft | 9 kts | 203° |
| 2026-05-08 02:14 | 43.55916 | -116.21071 | 2880 ft | 9 kts | 293° |
| 2026-05-08 02:15 | 43.55997 | -116.21308 | 2880 ft | 60 kts | 295° |
| 2026-05-08 02:15 | 43.56289 | -116.22127 | 2879 ft | 127 kts | 294° |
| 2026-05-08 02:15 | 43.56826 | -116.23401 | 2976 ft | 174 kts | 305° |
| 2026-05-08 02:15 | 43.57490 | -116.24909 | 3578 ft | 189 kts | 303° |
| 2026-05-08 02:16 | 43.58067 | -116.26582 | 4374 ft | 196 kts | 294° |
| 2026-05-08 02:16 | 43.58559 | -116.28368 | 5023 ft | 207 kts | 292° |
| 2026-05-08 02:16 | 43.59050 | -116.30341 | 5204 ft | 233 kts | 286° |
| 2026-05-08 02:16 | 43.59439 | -116.32555 | 5784 ft | 241 kts | 285° |
| 2026-05-08 02:17 | 43.59823 | -116.34896 | 6275 ft | 259 kts | 285° |
| 2026-05-08 02:17 | 43.60223 | -116.37352 | 7030 ft | 265 kts | 284° |
| 2026-05-08 02:17 | 43.60628 | -116.39824 | 7896 ft | 267 kts | 284° |
| 2026-05-08 02:17 | 43.61038 | -116.42315 | 8897 ft | 265 kts | 283° |
| 2026-05-08 02:18 | 43.61453 | -116.44816 | 9792 ft | 267 kts | 283° |
| 2026-05-08 02:18 | 43.61873 | -116.47334 | 10467 ft | 276 kts | 283° |
| 2026-05-08 02:18 | 43.62326 | -116.50046 | 10673 ft | 302 kts | 283° |
| 2026-05-08 02:18 | 43.62813 | -116.52952 | 10859 ft | 326 kts | 283° |
| 2026-05-08 02:19 | 43.63343 | -116.56111 | 11020 ft | 349 kts | 283° |
| 2026-05-08 02:19 | 43.63907 | -116.59473 | 11300 ft | 365 kts | 284° |
| 2026-05-08 02:19 | 43.64484 | -116.62928 | 11837 ft | 371 kts | 284° |
| 2026-05-08 02:19 | 43.65067 | -116.66417 | 12494 ft | 374 kts | 284° |
| 2026-05-08 02:20 | 43.65653 | -116.69937 | 13136 ft | 377 kts | 284° |
| 2026-05-08 02:20 | 43.66238 | -116.73448 | 13720 ft | 381 kts | 284° |
| 2026-05-08 02:20 | 43.66834 | -116.77038 | 14229 ft | 385 kts | 284° |
| 2026-05-08 02:20 | 43.67435 | -116.80660 | 14754 ft | 388 kts | 284° |
| 2026-05-08 02:21 | 43.68039 | -116.84315 | 15264 ft | 392 kts | 284° |
| 2026-05-08 02:21 | 43.68650 | -116.88017 | 15762 ft | 395 kts | 284° |
| 2026-05-08 02:21 | 43.69263 | -116.91736 | 16278 ft | 398 kts | 284° |
| 2026-05-08 02:21 | 43.69816 | -116.95103 | 16727 ft | 401 kts | 284° |
| 2026-05-08 02:22 | 43.70439 | -116.98898 | 17179 ft | 405 kts | 284° |
| 2026-05-08 02:22 | 43.71064 | -117.02714 | 17613 ft | 409 kts | 284° |
| 2026-05-08 02:22 | 43.71696 | -117.06581 | 18050 ft | 413 kts | 284° |
| 2026-05-08 02:22 | 43.72377 | -117.10461 | 18459 ft | 416 kts | 288° |
| 2026-05-08 02:23 | 43.73429 | -117.14195 | 18871 ft | 418 kts | 294° |
| 2026-05-08 02:23 | 43.74609 | -117.17842 | 19289 ft | 420 kts | 295° |
| 2026-05-08 02:23 | 43.75813 | -117.21549 | 19696 ft | 423 kts | 294° |
| 2026-05-08 02:23 | 43.77012 | -117.25275 | 20098 ft | 425 kts | 294° |
| 2026-05-08 02:24 | 43.78211 | -117.29039 | 20496 ft | 428 kts | 294° |
| 2026-05-08 02:24 | 43.79392 | -117.32781 | 20877 ft | 431 kts | 294° |
| 2026-05-08 02:24 | 43.80593 | -117.36602 | 21281 ft | 433 kts | 294° |
| 2026-05-08 02:24 | 43.81799 | -117.40453 | 21668 ft | 435 kts | 294° |
| 2026-05-08 02:25 | 43.83009 | -117.44324 | 22011 ft | 438 kts | 294° |
| 2026-05-08 02:25 | 43.84203 | -117.48148 | 22532 ft | 436 kts | 294° |
| 2026-05-08 02:25 | 43.85409 | -117.52013 | 22923 ft | 438 kts | 294° |
| 2026-05-08 02:25 | 43.86623 | -117.55910 | 23204 ft | 442 kts | 294° |
| 2026-05-08 02:26 | 43.87883 | -117.59841 | 23498 ft | 445 kts | 296° |
| 2026-05-08 02:26 | 43.89432 | -117.63579 | 23778 ft | 447 kts | 302° |
| 2026-05-08 02:26 | 43.91122 | -117.67205 | 24119 ft | 448 kts | 303° |
| 2026-05-08 02:26 | 43.92833 | -117.70812 | 24461 ft | 448 kts | 303° |
| 2026-05-08 02:27 | 43.94525 | -117.74381 | 24751 ft | 449 kts | 303° |
| 2026-05-08 02:27 | 43.96243 | -117.78031 | 25032 ft | 450 kts | 303° |
| 2026-05-08 02:27 | 43.97952 | -117.81693 | 25338 ft | 451 kts | 303° |
| 2026-05-08 02:27 | 43.99650 | -117.85360 | 25600 ft | 453 kts | 302° |
| 2026-05-08 02:28 | 44.01347 | -117.89045 | 25935 ft | 452 kts | 302° |
| 2026-05-08 02:28 | 44.03018 | -117.92684 | 26387 ft | 449 kts | 302° |
| 2026-05-08 02:28 | 44.04689 | -117.96333 | 26872 ft | 446 kts | 302° |
| 2026-05-08 02:28 | 44.06347 | -117.99957 | 27335 ft | 443 kts | 302° |
| 2026-05-08 02:29 | 44.07998 | -118.03572 | 27785 ft | 442 kts | 302° |
| 2026-05-08 02:29 | 44.09645 | -118.07182 | 28011 ft | 442 kts | 302° |
| 2026-05-08 02:29 | 44.12938 | -118.14410 | 28017 ft | 440 kts | 302° |
| 2026-05-08 02:30 | 44.16194 | -118.21572 | 28013 ft | 440 kts | 302° |
| 2026-05-08 02:30 | 44.19473 | -118.28804 | 28032 ft | 440 kts | 302° |
| 2026-05-08 02:31 | 44.22745 | -118.36040 | 28047 ft | 441 kts | 302° |
| 2026-05-08 02:31 | 44.25460 | -118.42058 | 28043 ft | 441 kts | 302° |
| 2026-05-08 02:32 | 44.29253 | -118.50485 | 28058 ft | 441 kts | 302° |
| 2026-05-08 02:32 | 44.32513 | -118.57746 | 28048 ft | 442 kts | 302° |
| 2026-05-08 02:33 | 44.35223 | -118.63799 | 28056 ft | 442 kts | 302° |
| 2026-05-08 02:33 | 44.38491 | -118.71112 | 28060 ft | 442 kts | 302° |
| 2026-05-08 02:34 | 44.41749 | -118.78423 | 28055 ft | 443 kts | 302° |
| 2026-05-08 02:34 | 44.44987 | -118.85716 | 28042 ft | 443 kts | 301° |
| 2026-05-08 02:35 | 44.48241 | -118.93053 | 28034 ft | 442 kts | 302° |
| 2026-05-08 02:35 | 44.51470 | -119.00347 | 28026 ft | 442 kts | 302° |
| 2026-05-08 02:36 | 44.54711 | -119.07693 | 28020 ft | 443 kts | 301° |
| 2026-05-08 02:36 | 44.57932 | -119.15013 | 28037 ft | 443 kts | 301° |
| 2026-05-08 02:37 | 44.61165 | -119.22381 | 28030 ft | 443 kts | 301° |
| 2026-05-08 02:37 | 44.64408 | -119.29788 | 28025 ft | 444 kts | 301° |
| 2026-05-08 02:38 | 44.67617 | -119.37140 | 28022 ft | 444 kts | 301° |
| 2026-05-08 02:38 | 44.70850 | -119.44563 | 28016 ft | 444 kts | 301° |
| 2026-05-08 02:39 | 44.74055 | -119.51942 | 28013 ft | 444 kts | 301° |
| 2026-05-08 02:39 | 44.77278 | -119.59381 | 28006 ft | 444 kts | 301° |
| 2026-05-08 02:40 | 44.80482 | -119.66795 | 28024 ft | 444 kts | 301° |
| 2026-05-08 02:40 | 44.83693 | -119.74247 | 28017 ft | 444 kts | 301° |
| 2026-05-08 02:41 | 44.86904 | -119.81716 | 28015 ft | 444 kts | 301° |
| 2026-05-08 02:41 | 44.90080 | -119.89125 | 27999 ft | 444 kts | 300° |
| 2026-05-08 02:42 | 44.93278 | -119.96603 | 28018 ft | 444 kts | 300° |
| 2026-05-08 02:42 | 44.96471 | -120.04092 | 28033 ft | 445 kts | 300° |
| 2026-05-08 02:43 | 44.99666 | -120.11605 | 28001 ft | 446 kts | 300° |
| 2026-05-08 02:43 | 45.02841 | -120.19088 | 28021 ft | 446 kts | 300° |
| 2026-05-08 02:44 | 45.06032 | -120.26632 | 28019 ft | 446 kts | 300° |
| 2026-05-08 02:44 | 45.09221 | -120.34190 | 28011 ft | 447 kts | 300° |
| 2026-05-08 02:45 | 45.12393 | -120.41729 | 27723 ft | 450 kts | 300° |
| 2026-05-08 02:45 | 45.13999 | -120.45553 | 26920 ft | 450 kts | 300° |
| 2026-05-08 02:45 | 45.15598 | -120.49364 | 26029 ft | 449 kts | 300° |
| 2026-05-08 02:46 | 45.17195 | -120.53192 | 25077 ft | 449 kts | 299° |
| 2026-05-08 02:46 | 45.18706 | -120.57000 | 24365 ft | 445 kts | 298° |
| 2026-05-08 02:46 | 45.20191 | -120.60866 | 23640 ft | 441 kts | 297° |
| 2026-05-08 02:46 | 45.21643 | -120.64686 | 22849 ft | 436 kts | 297° |
| 2026-05-08 02:47 | 45.23055 | -120.68400 | 22148 ft | 431 kts | 297° |
| 2026-05-08 02:47 | 45.24475 | -120.72124 | 21456 ft | 425 kts | 297° |
| 2026-05-08 02:47 | 45.25877 | -120.75789 | 20768 ft | 419 kts | 297° |
| 2026-05-08 02:47 | 45.27265 | -120.79412 | 20137 ft | 414 kts | 297° |
| 2026-05-08 02:48 | 45.28619 | -120.82947 | 19501 ft | 410 kts | 297° |
| 2026-05-08 02:48 | 45.29978 | -120.86496 | 18866 ft | 406 kts | 297° |
| 2026-05-08 02:48 | 45.31323 | -120.90016 | 18188 ft | 403 kts | 298° |
| 2026-05-08 02:48 | 45.32654 | -120.93504 | 17744 ft | 394 kts | 298° |
| 2026-05-08 02:49 | 45.33937 | -120.96869 | 17548 ft | 379 kts | 297° |
| 2026-05-08 02:49 | 45.35152 | -121.00057 | 17387 ft | 365 kts | 297° |
| 2026-05-08 02:49 | 45.36341 | -121.03182 | 17229 ft | 352 kts | 297° |
| 2026-05-08 02:49 | 45.37493 | -121.06212 | 17082 ft | 341 kts | 297° |
| 2026-05-08 02:50 | 45.38578 | -121.09141 | 16868 ft | 332 kts | 294° |
| 2026-05-08 02:50 | 45.39407 | -121.12209 | 16485 ft | 332 kts | 288° |
| 2026-05-08 02:50 | 45.40101 | -121.15309 | 16100 ft | 332 kts | 287° |
| 2026-05-08 02:50 | 45.40783 | -121.18449 | 15712 ft | 332 kts | 287° |
| 2026-05-08 02:51 | 45.41479 | -121.21601 | 15317 ft | 334 kts | 287° |
| 2026-05-08 02:51 | 45.42191 | -121.24755 | 14929 ft | 334 kts | 288° |
| 2026-05-08 02:51 | 45.42904 | -121.27864 | 14541 ft | 334 kts | 288° |
| 2026-05-08 02:51 | 45.43632 | -121.31008 | 14140 ft | 334 kts | 288° |
| 2026-05-08 02:52 | 45.44362 | -121.34155 | 13725 ft | 334 kts | 288° |
| 2026-05-08 02:52 | 45.45088 | -121.37285 | 13289 ft | 330 kts | 288° |
| 2026-05-08 02:52 | 45.45805 | -121.40384 | 12916 ft | 326 kts | 288° |
| 2026-05-08 02:52 | 45.46509 | -121.43430 | 12599 ft | 320 kts | 288° |
| 2026-05-08 02:53 | 45.47197 | -121.46415 | 12300 ft | 314 kts | 288° |
| 2026-05-08 02:53 | 45.47864 | -121.49310 | 12024 ft | 308 kts | 288° |
| 2026-05-08 02:53 | 45.48528 | -121.52197 | 11737 ft | 302 kts | 288° |
| 2026-05-08 02:53 | 45.49180 | -121.55029 | 11467 ft | 297 kts | 288° |
| 2026-05-08 02:54 | 45.49820 | -121.57816 | 11194 ft | 294 kts | 288° |
| 2026-05-08 02:54 | 45.50444 | -121.60541 | 10934 ft | 291 kts | 288° |
| 2026-05-08 02:54 | 45.51082 | -121.63329 | 10699 ft | 292 kts | 288° |
| 2026-05-08 02:54 | 45.51704 | -121.66041 | 10463 ft | 292 kts | 288° |
| 2026-05-08 02:55 | 45.52332 | -121.68786 | 10231 ft | 287 kts | 288° |
| 2026-05-08 02:55 | 45.53548 | -121.74078 | 9961 ft | 270 kts | 288° |
| 2026-05-08 02:55 | 45.54122 | -121.76572 | 9905 ft | 260 kts | 288° |
| 2026-05-08 02:56 | 45.54679 | -121.79009 | 9639 ft | 263 kts | 288° |
| 2026-05-08 02:56 | 45.55249 | -121.81511 | 9414 ft | 264 kts | 288° |
| 2026-05-08 02:56 | 45.55809 | -121.83976 | 9212 ft | 260 kts | 287° |
| 2026-05-08 02:56 | 45.56209 | -121.86497 | 8866 ft | 261 kts | 268° |
| 2026-05-08 02:57 | 45.55749 | -121.88945 | 8627 ft | 258 kts | 250° |
| 2026-05-08 02:57 | 45.55300 | -121.91409 | 8215 ft | 260 kts | 264° |
| 2026-05-08 02:57 | 45.55132 | -121.94010 | 7815 ft | 264 kts | 264° |
| 2026-05-08 02:57 | 45.54928 | -121.96624 | 7486 ft | 264 kts | 263° |
| 2026-05-08 02:58 | 45.54703 | -121.99230 | 7212 ft | 262 kts | 263° |
| 2026-05-08 02:58 | 45.54478 | -122.01776 | 6951 ft | 260 kts | 262° |
| 2026-05-08 02:58 | 45.54085 | -122.04271 | 6679 ft | 256 kts | 245° |
| 2026-05-08 02:58 | 45.53155 | -122.06359 | 6558 ft | 244 kts | 236° |
| 2026-05-08 02:59 | 45.52180 | -122.08283 | 6382 ft | 232 kts | 236° |
| 2026-05-08 02:59 | 45.51262 | -122.10105 | 6240 ft | 220 kts | 236° |
| 2026-05-08 02:59 | 45.50392 | -122.11841 | 6126 ft | 218 kts | 236° |
| 2026-05-08 02:59 | 45.49511 | -122.13602 | 6014 ft | 218 kts | 236° |
| 2026-05-08 03:00 | 45.48633 | -122.15359 | 5884 ft | 216 kts | 236° |
| 2026-05-08 03:00 | 45.47765 | -122.17099 | 5757 ft | 214 kts | 237° |
| 2026-05-08 03:00 | 45.47252 | -122.19070 | 5532 ft | 216 kts | 267° |
| 2026-05-08 03:00 | 45.47249 | -122.21218 | 5316 ft | 219 kts | 269° |
| 2026-05-08 03:01 | 45.47232 | -122.23406 | 5056 ft | 221 kts | 269° |
| 2026-05-08 03:01 | 45.47216 | -122.25589 | 4778 ft | 222 kts | 269° |
| 2026-05-08 03:01 | 45.47201 | -122.27800 | 4490 ft | 223 kts | 269° |
| 2026-05-08 03:01 | 45.47207 | -122.30009 | 4271 ft | 219 kts | 276° |
| 2026-05-08 03:02 | 45.47745 | -122.31947 | 4125 ft | 210 kts | 304° |
| 2026-05-08 03:02 | 45.48524 | -122.33689 | 3852 ft | 205 kts | 297° |
| 2026-05-08 03:02 | 45.49189 | -122.35467 | 3589 ft | 201 kts | 297° |
| 2026-05-08 03:02 | 45.49834 | -122.37177 | 3329 ft | 196 kts | 298° |
| 2026-05-08 03:03 | 45.50484 | -122.38867 | 3055 ft | 192 kts | 298° |
| 2026-05-08 03:03 | 45.51122 | -122.40519 | 2804 ft | 188 kts | 298° |
| 2026-05-08 03:03 | 45.51740 | -122.42115 | 2553 ft | 179 kts | 298° |
| 2026-05-08 03:03 | 45.52326 | -122.43628 | 2324 ft | 169 kts | 298° |
| 2026-05-08 03:04 | 45.52875 | -122.45044 | 2132 ft | 155 kts | 298° |
| 2026-05-08 03:04 | 45.53391 | -122.46377 | 1891 ft | 155 kts | 298° |
| 2026-05-08 03:04 | 45.53909 | -122.47714 | 1694 ft | 153 kts | 298° |
| 2026-05-08 03:04 | 45.54424 | -122.49041 | 1491 ft | 153 kts | 298° |
| 2026-05-08 03:05 | 45.54944 | -122.50383 | 1282 ft | 155 kts | 298° |
| 2026-05-08 03:05 | 45.55472 | -122.51743 | 1073 ft | 157 kts | 299° |
| 2026-05-08 03:05 | 45.56001 | -122.53107 | 870 ft | 157 kts | 299° |
| 2026-05-08 03:05 | 45.56520 | -122.54442 | 663 ft | 155 kts | 299° |
| 2026-05-08 03:06 | 45.57037 | -122.55775 | 462 ft | 152 kts | 299° |
| 2026-05-08 03:06 | 45.57543 | -122.57078 | 270 ft | 150 kts | 299° |
| 2026-05-08 03:06 | 45.58050 | -122.58381 | 70 ft | 150 kts | 299° |
| 2026-05-08 03:06 | 45.58513 | -122.59537 | 41 ft | 106 kts | 298° |
| 2026-05-08 03:07 | 45.58766 | -122.60189 | 38 ft | 44 kts | 299° |
| 2026-05-08 03:07 | 45.58860 | -122.60424 | 37 ft | 16 kts | 309° |
| 2026-05-08 03:07 | 45.58942 | -122.60436 | 36 ft | 0 kts | 38° |